sensor_id;sensor_type;location;lat;lon;timestamp;P1;durP1;ratioP1;P2;durP2;ratioP2
12597;SDS011;6364;53.590;9.956;2022-12-31T00:01:44;11.70;;;10.50;;
12597;SDS011;6364;53.590;9.956;2022-12-31T00:04:09;12.82;;;9.90;;
12597;SDS011;6364;53.590;9.956;2022-12-31T00:06:34;10.68;;;9.65;;
12597;SDS011;6364;53.590;9.956;2022-12-31T00:09:01;10.82;;;9.73;;
12597;SDS011;6364;53.590;9.956;2022-12-31T00:11:29;11.43;;;9.40;;
12597;SDS011;6364;53.590;9.956;2022-12-31T00:13:54;12.35;;;10.30;;
12597;SDS011;6364;53.590;9.956;2022-12-31T00:16:21;11.18;;;9.80;;
12597;SDS011;6364;53.590;9.956;2022-12-31T00:18:54;11.35;;;10.13;;
12597;SDS011;6364;53.590;9.956;2022-12-31T00:21:23;12.10;;;9.25;;
12597;SDS011;6364;53.590;9.956;2022-12-31T00:23:48;12.52;;;9.98;;
12597;SDS011;6364;53.590;9.956;2022-12-31T00:26:14;12.55;;;10.30;;
12597;SDS011;6364;53.590;9.956;2022-12-31T00:28:45;12.75;;;10.75;;
12597;SDS011;6364;53.590;9.956;2022-12-31T00:31:12;12.77;;;10.27;;
12597;SDS011;6364;53.590;9.956;2022-12-31T00:33:39;11.20;;;10.07;;
12597;SDS011;6364;53.590;9.956;2022-12-31T00:36:06;10.68;;;9.60;;
12597;SDS011;6364;53.590;9.956;2022-12-31T00:38:33;11.10;;;9.98;;
12597;SDS011;6364;53.590;9.956;2022-12-31T00:40:59;11.23;;;9.43;;
12597;SDS011;6364;53.590;9.956;2022-12-31T00:43:25;12.52;;;10.27;;
12597;SDS011;6364;53.590;9.956;2022-12-31T00:45:50;10.23;;;9.15;;
12597;SDS011;6364;53.590;9.956;2022-12-31T00:48:15;10.50;;;9.07;;
12597;SDS011;6364;53.590;9.956;2022-12-31T00:50:41;11.00;;;9.52;;
12597;SDS011;6364;53.590;9.956;2022-12-31T00:53:06;11.55;;;9.60;;
12597;SDS011;6364;53.590;9.956;2022-12-31T00:55:31;10.68;;;8.80;;
12597;SDS011;6364;53.590;9.956;2022-12-31T00:57:56;9.88;;;8.88;;
12597;SDS011;6364;53.590;9.956;2022-12-31T01:00:22;9.75;;;8.75;;
12597;SDS011;6364;53.590;9.956;2022-12-31T01:02:47;10.57;;;8.32;;
12597;SDS011;6364;53.590;9.956;2022-12-31T01:05:13;9.57;;;8.57;;
12597;SDS011;6364;53.590;9.956;2022-12-31T01:07:38;11.30;;;8.57;;
12597;SDS011;6364;53.590;9.956;2022-12-31T01:10:04;8.95;;;8.05;;
12597;SDS011;6364;53.590;9.956;2022-12-31T01:12:29;8.88;;;7.97;;
12597;SDS011;6364;53.590;9.956;2022-12-31T01:14:55;10.55;;;7.70;;
12597;SDS011;6364;53.590;9.956;2022-12-31T01:17:20;7.53;;;6.82;;
12597;SDS011;6364;53.590;9.956;2022-12-31T01:19:45;11.40;;;7.72;;
12597;SDS011;6364;53.590;9.956;2022-12-31T01:22:11;10.38;;;7.50;;
12597;SDS011;6364;53.590;9.956;2022-12-31T01:24:36;8.82;;;7.18;;
12597;SDS011;6364;53.590;9.956;2022-12-31T01:27:01;7.57;;;6.30;;
12597;SDS011;6364;53.590;9.956;2022-12-31T01:29:26;8.93;;;6.93;;
12597;SDS011;6364;53.590;9.956;2022-12-31T01:31:53;8.85;;;7.28;;
12597;SDS011;6364;53.590;9.956;2022-12-31T01:34:18;9.25;;;7.38;;
12597;SDS011;6364;53.590;9.956;2022-12-31T01:36:44;8.07;;;7.28;;
12597;SDS011;6364;53.590;9.956;2022-12-31T01:39:09;9.02;;;7.05;;
12597;SDS011;6364;53.590;9.956;2022-12-31T01:41:36;11.35;;;7.22;;
12597;SDS011;6364;53.590;9.956;2022-12-31T01:46:38;8.60;;;7.53;;
12597;SDS011;6364;53.590;9.956;2022-12-31T01:49:15;9.48;;;7.50;;
12597;SDS011;6364;53.590;9.956;2022-12-31T01:51:44;10.43;;;7.78;;
12597;SDS011;6364;53.590;9.956;2022-12-31T01:54:13;11.82;;;8.02;;
12597;SDS011;6364;53.590;9.956;2022-12-31T01:56:40;12.40;;;7.95;;
12597;SDS011;6364;53.590;9.956;2022-12-31T01:59:07;14.00;;;8.65;;
12597;SDS011;6364;53.590;9.956;2022-12-31T02:01:33;11.68;;;8.40;;
12597;SDS011;6364;53.590;9.956;2022-12-31T02:04:02;11.43;;;7.72;;
12597;SDS011;6364;53.590;9.956;2022-12-31T02:06:37;11.43;;;8.85;;
12597;SDS011;6364;53.590;9.956;2022-12-31T02:09:06;10.68;;;8.48;;
12597;SDS011;6364;53.590;9.956;2022-12-31T02:11:32;11.98;;;8.35;;
12597;SDS011;6364;53.590;9.956;2022-12-31T02:14:21;11.40;;;7.88;;
12597;SDS011;6364;53.590;9.956;2022-12-31T02:16:55;9.93;;;7.80;;
12597;SDS011;6364;53.590;9.956;2022-12-31T02:24:56;10.95;;;8.02;;
12597;SDS011;6364;53.590;9.956;2022-12-31T02:27:52;10.30;;;7.90;;
12597;SDS011;6364;53.590;9.956;2022-12-31T02:30:21;11.88;;;7.50;;
12597;SDS011;6364;53.590;9.956;2022-12-31T02:32:56;9.40;;;7.95;;
12597;SDS011;6364;53.590;9.956;2022-12-31T02:38:15;9.30;;;7.50;;
12597;SDS011;6364;53.590;9.956;2022-12-31T02:40:43;9.50;;;7.45;;
12597;SDS011;6364;53.590;9.956;2022-12-31T02:43:09;10.30;;;7.22;;
12597;SDS011;6364;53.590;9.956;2022-12-31T02:45:36;11.57;;;7.55;;
12597;SDS011;6364;53.590;9.956;2022-12-31T02:50:36;11.52;;;8.23;;
12597;SDS011;6364;53.590;9.956;2022-12-31T02:53:23;9.60;;;7.20;;
12597;SDS011;6364;53.590;9.956;2022-12-31T02:55:56;8.23;;;7.13;;
12597;SDS011;6364;53.590;9.956;2022-12-31T02:58:28;10.10;;;7.53;;
12597;SDS011;6364;53.590;9.956;2022-12-31T03:01:19;8.80;;;7.00;;
12597;SDS011;6364;53.590;9.956;2022-12-31T03:04:07;8.63;;;7.03;;
12597;SDS011;6364;53.590;9.956;2022-12-31T03:06:51;9.20;;;6.72;;
12597;SDS011;6364;53.590;9.956;2022-12-31T03:09:17;10.07;;;7.00;;
12597;SDS011;6364;53.590;9.956;2022-12-31T03:11:42;8.55;;;6.95;;
12597;SDS011;6364;53.590;9.956;2022-12-31T03:16:52;8.02;;;6.45;;
12597;SDS011;6364;53.590;9.956;2022-12-31T03:19:17;8.40;;;6.40;;
12597;SDS011;6364;53.590;9.956;2022-12-31T03:22:01;7.00;;;6.28;;
12597;SDS011;6364;53.590;9.956;2022-12-31T03:27:29;6.80;;;5.55;;
12597;SDS011;6364;53.590;9.956;2022-12-31T03:29:54;7.88;;;5.25;;
12597;SDS011;6364;53.590;9.956;2022-12-31T03:32:19;6.45;;;5.35;;
12597;SDS011;6364;53.590;9.956;2022-12-31T03:34:44;7.28;;;4.85;;
12597;SDS011;6364;53.590;9.956;2022-12-31T03:37:10;8.15;;;4.85;;
12597;SDS011;6364;53.590;9.956;2022-12-31T03:39:35;7.03;;;4.50;;
12597;SDS011;6364;53.590;9.956;2022-12-31T03:42:00;6.72;;;4.30;;
12597;SDS011;6364;53.590;9.956;2022-12-31T03:44:26;4.60;;;4.18;;
12597;SDS011;6364;53.590;9.956;2022-12-31T03:46:51;6.22;;;4.43;;
12597;SDS011;6364;53.590;9.956;2022-12-31T03:49:16;5.10;;;4.07;;
12597;SDS011;6364;53.590;9.956;2022-12-31T03:51:41;10.02;;;4.28;;
12597;SDS011;6364;53.590;9.956;2022-12-31T03:54:07;7.22;;;4.72;;
12597;SDS011;6364;53.590;9.956;2022-12-31T03:56:32;7.22;;;5.00;;
12597;SDS011;6364;53.590;9.956;2022-12-31T03:58:57;8.50;;;5.22;;
12597;SDS011;6364;53.590;9.956;2022-12-31T04:01:23;7.47;;;5.05;;
12597;SDS011;6364;53.590;9.956;2022-12-31T04:03:49;6.97;;;5.00;;
12597;SDS011;6364;53.590;9.956;2022-12-31T04:06:14;9.93;;;5.10;;
12597;SDS011;6364;53.590;9.956;2022-12-31T04:08:39;7.60;;;6.10;;
12597;SDS011;6364;53.590;9.956;2022-12-31T04:11:05;10.77;;;6.75;;
12597;SDS011;6364;53.590;9.956;2022-12-31T04:13:30;7.70;;;6.13;;
12597;SDS011;6364;53.590;9.956;2022-12-31T04:15:55;8.88;;;7.22;;
12597;SDS011;6364;53.590;9.956;2022-12-31T04:18:21;9.57;;;7.30;;
12597;SDS011;6364;53.590;9.956;2022-12-31T04:20:46;9.98;;;7.55;;
12597;SDS011;6364;53.590;9.956;2022-12-31T04:23:11;13.55;;;7.90;;
12597;SDS011;6364;53.590;9.956;2022-12-31T04:25:37;10.65;;;8.15;;
12597;SDS011;6364;53.590;9.956;2022-12-31T04:28:02;10.85;;;8.20;;
12597;SDS011;6364;53.590;9.956;2022-12-31T04:30:27;9.90;;;7.97;;
12597;SDS011;6364;53.590;9.956;2022-12-31T04:32:53;12.13;;;8.93;;
12597;SDS011;6364;53.590;9.956;2022-12-31T04:35:18;13.48;;;9.25;;
12597;SDS011;6364;53.590;9.956;2022-12-31T04:37:44;11.27;;;9.20;;
12597;SDS011;6364;53.590;9.956;2022-12-31T04:40:09;14.82;;;10.00;;
12597;SDS011;6364;53.590;9.956;2022-12-31T04:42:35;12.43;;;9.63;;
12597;SDS011;6364;53.590;9.956;2022-12-31T04:45:01;15.63;;;10.73;;
12597;SDS011;6364;53.590;9.956;2022-12-31T04:47:26;14.18;;;10.60;;
12597;SDS011;6364;53.590;9.956;2022-12-31T04:49:51;15.68;;;10.90;;
12597;SDS011;6364;53.590;9.956;2022-12-31T04:52:17;13.80;;;9.55;;
12597;SDS011;6364;53.590;9.956;2022-12-31T04:54:42;12.98;;;9.77;;
12597;SDS011;6364;53.590;9.956;2022-12-31T04:57:07;13.05;;;8.80;;
12597;SDS011;6364;53.590;9.956;2022-12-31T04:59:33;10.25;;;8.15;;
12597;SDS011;6364;53.590;9.956;2022-12-31T05:01:58;11.57;;;7.93;;
12597;SDS011;6364;53.590;9.956;2022-12-31T05:04:23;11.57;;;8.23;;
12597;SDS011;6364;53.590;9.956;2022-12-31T05:06:49;10.30;;;7.47;;
12597;SDS011;6364;53.590;9.956;2022-12-31T05:09:14;13.43;;;8.18;;
12597;SDS011;6364;53.590;9.956;2022-12-31T05:11:39;11.50;;;7.70;;
12597;SDS011;6364;53.590;9.956;2022-12-31T05:14:05;7.57;;;6.50;;
12597;SDS011;6364;53.590;9.956;2022-12-31T05:16:30;7.28;;;6.22;;
12597;SDS011;6364;53.590;9.956;2022-12-31T05:18:55;8.90;;;5.95;;
12597;SDS011;6364;53.590;9.956;2022-12-31T05:21:21;7.68;;;5.68;;
12597;SDS011;6364;53.590;9.956;2022-12-31T05:23:46;6.50;;;5.40;;
12597;SDS011;6364;53.590;9.956;2022-12-31T05:26:12;5.25;;;4.75;;
12597;SDS011;6364;53.590;9.956;2022-12-31T05:28:37;5.80;;;4.82;;
12597;SDS011;6364;53.590;9.956;2022-12-31T05:31:03;6.38;;;4.60;;
12597;SDS011;6364;53.590;9.956;2022-12-31T05:33:28;7.28;;;4.65;;
12597;SDS011;6364;53.590;9.956;2022-12-31T05:35:53;5.47;;;4.82;;
12597;SDS011;6364;53.590;9.956;2022-12-31T05:38:21;7.85;;;4.75;;
12597;SDS011;6364;53.590;9.956;2022-12-31T05:40:47;8.45;;;5.05;;
12597;SDS011;6364;53.590;9.956;2022-12-31T05:43:12;10.02;;;5.68;;
12597;SDS011;6364;53.590;9.956;2022-12-31T05:45:37;8.68;;;5.70;;
12597;SDS011;6364;53.590;9.956;2022-12-31T05:48:03;10.20;;;5.78;;
12597;SDS011;6364;53.590;9.956;2022-12-31T05:50:28;10.70;;;6.00;;
12597;SDS011;6364;53.590;9.956;2022-12-31T05:52:54;9.15;;;5.45;;
12597;SDS011;6364;53.590;9.956;2022-12-31T05:57:47;6.93;;;4.38;;
12597;SDS011;6364;53.590;9.956;2022-12-31T06:00:12;10.05;;;4.13;;
12597;SDS011;6364;53.590;9.956;2022-12-31T06:02:38;7.32;;;3.80;;
12597;SDS011;6364;53.590;9.956;2022-12-31T06:05:03;7.80;;;4.22;;
12597;SDS011;6364;53.590;9.956;2022-12-31T06:07:29;10.07;;;3.95;;
12597;SDS011;6364;53.590;9.956;2022-12-31T06:09:54;4.70;;;3.47;;
12597;SDS011;6364;53.590;9.956;2022-12-31T06:12:20;3.58;;;3.20;;
12597;SDS011;6364;53.590;9.956;2022-12-31T06:14:45;5.60;;;3.28;;
12597;SDS011;6364;53.590;9.956;2022-12-31T06:17:10;3.88;;;2.85;;
12597;SDS011;6364;53.590;9.956;2022-12-31T06:19:36;3.05;;;2.42;;
12597;SDS011;6364;53.590;9.956;2022-12-31T06:22:01;4.57;;;2.28;;
12597;SDS011;6364;53.590;9.956;2022-12-31T06:24:26;2.72;;;2.30;;
12597;SDS011;6364;53.590;9.956;2022-12-31T06:26:52;2.75;;;2.20;;
12597;SDS011;6364;53.590;9.956;2022-12-31T06:29:17;3.63;;;2.13;;
12597;SDS011;6364;53.590;9.956;2022-12-31T06:31:42;3.30;;;1.65;;
12597;SDS011;6364;53.590;9.956;2022-12-31T06:34:08;2.42;;;1.70;;
12597;SDS011;6364;53.590;9.956;2022-12-31T06:36:33;2.13;;;1.60;;
12597;SDS011;6364;53.590;9.956;2022-12-31T06:38:58;2.22;;;1.30;;
12597;SDS011;6364;53.590;9.956;2022-12-31T06:41:25;1.73;;;1.63;;
12597;SDS011;6364;53.590;9.956;2022-12-31T06:43:50;1.48;;;1.38;;
12597;SDS011;6364;53.590;9.956;2022-12-31T06:46:16;1.73;;;1.40;;
12597;SDS011;6364;53.590;9.956;2022-12-31T06:48:42;2.40;;;1.50;;
12597;SDS011;6364;53.590;9.956;2022-12-31T06:51:12;1.38;;;1.17;;
12597;SDS011;6364;53.590;9.956;2022-12-31T06:53:39;2.97;;;1.60;;
12597;SDS011;6364;53.590;9.956;2022-12-31T06:56:09;2.05;;;1.10;;
12597;SDS011;6364;53.590;9.956;2022-12-31T06:58:38;1.27;;;1.17;;
12597;SDS011;6364;53.590;9.956;2022-12-31T07:07:03;2.00;;;1.30;;
12597;SDS011;6364;53.590;9.956;2022-12-31T07:09:37;1.73;;;1.30;;
12597;SDS011;6364;53.590;9.956;2022-12-31T07:20:16;3.28;;;1.10;;
12597;SDS011;6364;53.590;9.956;2022-12-31T07:22:43;1.17;;;1.10;;
12597;SDS011;6364;53.590;9.956;2022-12-31T07:25:12;1.23;;;1.10;;
12597;SDS011;6364;53.590;9.956;2022-12-31T07:41:51;1.38;;;1.00;;
12597;SDS011;6364;53.590;9.956;2022-12-31T07:47:19;1.52;;;0.93;;
12597;SDS011;6364;53.590;9.956;2022-12-31T07:49:49;1.60;;;1.13;;
12597;SDS011;6364;53.590;9.956;2022-12-31T07:52:15;1.80;;;0.90;;
12597;SDS011;6364;53.590;9.956;2022-12-31T07:54:41;1.15;;;0.93;;
12597;SDS011;6364;53.590;9.956;2022-12-31T07:57:07;3.22;;;1.17;;
12597;SDS011;6364;53.590;9.956;2022-12-31T07:59:57;0.82;;;0.80;;
12597;SDS011;6364;53.590;9.956;2022-12-31T08:02:36;3.28;;;1.17;;
12597;SDS011;6364;53.590;9.956;2022-12-31T08:05:17;1.35;;;1.00;;
12597;SDS011;6364;53.590;9.956;2022-12-31T08:08:10;3.15;;;1.08;;
12597;SDS011;6364;53.590;9.956;2022-12-31T08:13:36;1.40;;;1.10;;
12597;SDS011;6364;53.590;9.956;2022-12-31T08:16:03;1.80;;;1.10;;
12597;SDS011;6364;53.590;9.956;2022-12-31T08:18:29;3.33;;;0.95;;
12597;SDS011;6364;53.590;9.956;2022-12-31T08:26:12;4.03;;;1.42;;
12597;SDS011;6364;53.590;9.956;2022-12-31T08:31:33;2.58;;;2.00;;
12597;SDS011;6364;53.590;9.956;2022-12-31T08:34:06;4.25;;;2.05;;
12597;SDS011;6364;53.590;9.956;2022-12-31T08:36:44;2.88;;;2.35;;
12597;SDS011;6364;53.590;9.956;2022-12-31T08:41:57;2.10;;;1.90;;
12597;SDS011;6364;53.590;9.956;2022-12-31T08:50:02;4.03;;;1.88;;
12597;SDS011;6364;53.590;9.956;2022-12-31T08:52:28;4.13;;;2.25;;
12597;SDS011;6364;53.590;9.956;2022-12-31T08:54:54;3.35;;;1.90;;
12597;SDS011;6364;53.590;9.956;2022-12-31T08:57:28;4.10;;;2.00;;
12597;SDS011;6364;53.590;9.956;2022-12-31T09:00:01;3.28;;;1.90;;
12597;SDS011;6364;53.590;9.956;2022-12-31T09:10:56;4.72;;;2.42;;
12597;SDS011;6364;53.590;9.956;2022-12-31T09:13:31;4.70;;;2.60;;
12597;SDS011;6364;53.590;9.956;2022-12-31T09:16:24;3.50;;;2.50;;
12597;SDS011;6364;53.590;9.956;2022-12-31T09:19:04;4.22;;;2.80;;
12597;SDS011;6364;53.590;9.956;2022-12-31T09:21:29;5.63;;;3.00;;
12597;SDS011;6364;53.590;9.956;2022-12-31T09:23:56;3.90;;;3.35;;
12597;SDS011;6364;53.590;9.956;2022-12-31T09:26:35;4.15;;;3.50;;
12597;SDS011;6364;53.590;9.956;2022-12-31T09:29:10;3.25;;;2.95;;
12597;SDS011;6364;53.590;9.956;2022-12-31T09:37:41;5.88;;;4.20;;
12597;SDS011;6364;53.590;9.956;2022-12-31T09:43:01;5.22;;;4.65;;
12597;SDS011;6364;53.590;9.956;2022-12-31T09:45:39;6.65;;;4.97;;
12597;SDS011;6364;53.590;9.956;2022-12-31T10:10:30;7.05;;;4.13;;
12597;SDS011;6364;53.590;9.956;2022-12-31T10:27:50;4.85;;;3.25;;
12597;SDS011;6364;53.590;9.956;2022-12-31T10:30:20;4.50;;;2.70;;
12597;SDS011;6364;53.590;9.956;2022-12-31T10:32:58;2.90;;;2.60;;
12597;SDS011;6364;53.590;9.956;2022-12-31T10:38:29;3.35;;;2.70;;
12597;SDS011;6364;53.590;9.956;2022-12-31T10:41:26;3.72;;;2.70;;
12597;SDS011;6364;53.590;9.956;2022-12-31T10:44:09;1.70;;;1.60;;
12597;SDS011;6364;53.590;9.956;2022-12-31T11:09:07;2.33;;;2.13;;
12597;SDS011;6364;53.590;9.956;2022-12-31T11:14:38;1.73;;;1.63;;
12597;SDS011;6364;53.590;9.956;2022-12-31T11:20:02;3.13;;;2.25;;
12597;SDS011;6364;53.590;9.956;2022-12-31T11:25:28;2.20;;;2.00;;
12597;SDS011;6364;53.590;9.956;2022-12-31T11:38:52;3.75;;;2.80;;
12597;SDS011;6364;53.590;9.956;2022-12-31T11:41:32;3.22;;;2.70;;
12597;SDS011;6364;53.590;9.956;2022-12-31T11:44:02;2.95;;;2.63;;
12597;SDS011;6364;53.590;9.956;2022-12-31T11:51:49;3.30;;;2.60;;
12597;SDS011;6364;53.590;9.956;2022-12-31T11:57:21;3.22;;;2.83;;
12597;SDS011;6364;53.590;9.956;2022-12-31T11:59:56;3.15;;;2.75;;
12597;SDS011;6364;53.590;9.956;2022-12-31T12:02:45;3.10;;;2.28;;
12597;SDS011;6364;53.590;9.956;2022-12-31T12:05:19;2.17;;;2.00;;
12597;SDS011;6364;53.590;9.956;2022-12-31T12:07:47;2.50;;;2.30;;
12597;SDS011;6364;53.590;9.956;2022-12-31T12:10:24;2.70;;;2.50;;
12597;SDS011;6364;53.590;9.956;2022-12-31T12:12:51;3.88;;;2.70;;
12597;SDS011;6364;53.590;9.956;2022-12-31T12:15:31;4.43;;;2.47;;
12597;SDS011;6364;53.590;9.956;2022-12-31T12:17:58;3.90;;;1.88;;
12597;SDS011;6364;53.590;9.956;2022-12-31T12:22:59;1.83;;;1.73;;
12597;SDS011;6364;53.590;9.956;2022-12-31T12:25:34;3.50;;;1.63;;
12597;SDS011;6364;53.590;9.956;2022-12-31T12:33:20;2.00;;;1.80;;
12597;SDS011;6364;53.590;9.956;2022-12-31T12:35:45;3.15;;;1.60;;
12597;SDS011;6364;53.590;9.956;2022-12-31T12:38:13;2.25;;;1.45;;
12597;SDS011;6364;53.590;9.956;2022-12-31T12:40:58;2.00;;;1.50;;
12597;SDS011;6364;53.590;9.956;2022-12-31T12:43:29;1.80;;;1.45;;
12597;SDS011;6364;53.590;9.956;2022-12-31T12:45:59;3.30;;;2.20;;
12597;SDS011;6364;53.590;9.956;2022-12-31T12:48:39;2.67;;;1.30;;
12597;SDS011;6364;53.590;9.956;2022-12-31T12:51:31;1.58;;;1.20;;
12597;SDS011;6364;53.590;9.956;2022-12-31T12:54:16;1.45;;;1.00;;
12597;SDS011;6364;53.590;9.956;2022-12-31T13:02:46;1.73;;;1.20;;
12597;SDS011;6364;53.590;9.956;2022-12-31T13:07:41;1.73;;;1.33;;
12597;SDS011;6364;53.590;9.956;2022-12-31T13:13:10;1.48;;;1.38;;
12597;SDS011;6364;53.590;9.956;2022-12-31T13:16:20;2.40;;;1.50;;
12597;SDS011;6364;53.590;9.956;2022-12-31T13:19:04;2.83;;;2.20;;
12597;SDS011;6364;53.590;9.956;2022-12-31T13:21:44;2.97;;;2.05;;
12597;SDS011;6364;53.590;9.956;2022-12-31T13:29:32;2.03;;;1.80;;
12597;SDS011;6364;53.590;9.956;2022-12-31T13:31:59;2.17;;;2.08;;
12597;SDS011;6364;53.590;9.956;2022-12-31T13:34:37;2.55;;;2.00;;
12597;SDS011;6364;53.590;9.956;2022-12-31T13:37:05;1.98;;;1.80;;
12597;SDS011;6364;53.590;9.956;2022-12-31T13:39:41;3.05;;;2.47;;
12597;SDS011;6364;53.590;9.956;2022-12-31T13:42:17;3.03;;;1.55;;
12597;SDS011;6364;53.590;9.956;2022-12-31T13:44:58;5.30;;;3.95;;
12597;SDS011;6364;53.590;9.956;2022-12-31T13:47:32;1.88;;;1.30;;
12597;SDS011;6364;53.590;9.956;2022-12-31T13:50:07;2.53;;;1.50;;
12597;SDS011;6364;53.590;9.956;2022-12-31T13:52:41;2.03;;;1.40;;
12597;SDS011;6364;53.590;9.956;2022-12-31T13:55:25;1.30;;;1.20;;
12597;SDS011;6364;53.590;9.956;2022-12-31T14:03:22;2.13;;;1.13;;
12597;SDS011;6364;53.590;9.956;2022-12-31T14:06:00;1.63;;;1.50;;
12597;SDS011;6364;53.590;9.956;2022-12-31T14:08:29;2.80;;;2.00;;
12597;SDS011;6364;53.590;9.956;2022-12-31T14:22:04;2.58;;;2.20;;
12597;SDS011;6364;53.590;9.956;2022-12-31T14:24:45;4.25;;;3.70;;
12597;SDS011;6364;53.590;9.956;2022-12-31T14:27:16;4.53;;;3.08;;
12597;SDS011;6364;53.590;9.956;2022-12-31T14:29:52;4.10;;;3.55;;
12597;SDS011;6364;53.590;9.956;2022-12-31T14:32:38;4.47;;;3.00;;
12597;SDS011;6364;53.590;9.956;2022-12-31T14:38:19;3.10;;;2.60;;
12597;SDS011;6364;53.590;9.956;2022-12-31T14:47:21;6.05;;;3.20;;
12597;SDS011;6364;53.590;9.956;2022-12-31T14:55:33;7.57;;;3.55;;
12597;SDS011;6364;53.590;9.956;2022-12-31T14:58:01;3.40;;;2.95;;
12597;SDS011;6364;53.590;9.956;2022-12-31T15:03:03;4.30;;;2.90;;
12597;SDS011;6364;53.590;9.956;2022-12-31T15:05:33;5.95;;;3.50;;
12597;SDS011;6364;53.590;9.956;2022-12-31T15:08:11;5.60;;;3.88;;
12597;SDS011;6364;53.590;9.956;2022-12-31T15:10:52;7.20;;;5.75;;
12597;SDS011;6364;53.590;9.956;2022-12-31T15:22:03;4.07;;;3.50;;
12597;SDS011;6364;53.590;9.956;2022-12-31T15:27:01;6.90;;;3.88;;
12597;SDS011;6364;53.590;9.956;2022-12-31T15:29:40;5.78;;;3.92;;
12597;SDS011;6364;53.590;9.956;2022-12-31T15:32:06;7.97;;;4.22;;
12597;SDS011;6364;53.590;9.956;2022-12-31T15:34:41;6.43;;;4.05;;
12597;SDS011;6364;53.590;9.956;2022-12-31T15:37:25;6.97;;;4.47;;
12597;SDS011;6364;53.590;9.956;2022-12-31T15:40:30;7.70;;;5.38;;
12597;SDS011;6364;53.590;9.956;2022-12-31T15:45:45;6.10;;;4.63;;
12597;SDS011;6364;53.590;9.956;2022-12-31T15:48:16;11.35;;;7.75;;
12597;SDS011;6364;53.590;9.956;2022-12-31T15:50:43;9.25;;;7.22;;
12597;SDS011;6364;53.590;9.956;2022-12-31T15:53:14;6.75;;;5.28;;
12597;SDS011;6364;53.590;9.956;2022-12-31T15:55:50;8.15;;;5.30;;
12597;SDS011;6364;53.590;9.956;2022-12-31T15:58:18;7.10;;;5.45;;
12597;SDS011;6364;53.590;9.956;2022-12-31T16:03:22;8.65;;;5.85;;
12597;SDS011;6364;53.590;9.956;2022-12-31T16:05:49;11.20;;;6.40;;
12597;SDS011;6364;53.590;9.956;2022-12-31T16:08:21;9.15;;;6.28;;
12597;SDS011;6364;53.590;9.956;2022-12-31T16:10:48;14.52;;;8.63;;
12597;SDS011;6364;53.590;9.956;2022-12-31T16:13:17;8.80;;;4.68;;
12597;SDS011;6364;53.590;9.956;2022-12-31T16:15:46;11.65;;;5.72;;
12597;SDS011;6364;53.590;9.956;2022-12-31T16:18:13;11.65;;;6.05;;
12597;SDS011;6364;53.590;9.956;2022-12-31T16:20:40;91.53;;;74.63;;
12597;SDS011;6364;53.590;9.956;2022-12-31T16:23:25;14.57;;;9.60;;
12597;SDS011;6364;53.590;9.956;2022-12-31T16:25:53;16.77;;;10.38;;
12597;SDS011;6364;53.590;9.956;2022-12-31T16:28:22;43.40;;;26.33;;
12597;SDS011;6364;53.590;9.956;2022-12-31T16:31:13;25.23;;;14.45;;
12597;SDS011;6364;53.590;9.956;2022-12-31T16:33:41;28.23;;;18.02;;
12597;SDS011;6364;53.590;9.956;2022-12-31T16:36:14;23.13;;;15.38;;
12597;SDS011;6364;53.590;9.956;2022-12-31T16:38:43;24.92;;;15.25;;
12597;SDS011;6364;53.590;9.956;2022-12-31T16:43:41;16.20;;;10.48;;
12597;SDS011;6364;53.590;9.956;2022-12-31T16:46:09;17.92;;;11.77;;
12597;SDS011;6364;53.590;9.956;2022-12-31T16:48:38;24.40;;;14.30;;
12597;SDS011;6364;53.590;9.956;2022-12-31T16:51:03;18.60;;;12.00;;
12597;SDS011;6364;53.590;9.956;2022-12-31T16:53:29;16.13;;;11.07;;
12597;SDS011;6364;53.590;9.956;2022-12-31T16:56:02;25.73;;;18.80;;
12597;SDS011;6364;53.590;9.956;2022-12-31T16:58:31;23.67;;;15.10;;
12597;SDS011;6364;53.590;9.956;2022-12-31T17:01:05;19.52;;;12.63;;
12597;SDS011;6364;53.590;9.956;2022-12-31T17:03:37;20.98;;;13.70;;
12597;SDS011;6364;53.590;9.956;2022-12-31T17:08:44;39.88;;;25.88;;
12597;SDS011;6364;53.590;9.956;2022-12-31T17:13:53;54.70;;;32.88;;
12597;SDS011;6364;53.590;9.956;2022-12-31T17:16:20;49.45;;;27.15;;
12597;SDS011;6364;53.590;9.956;2022-12-31T17:18:46;37.60;;;24.00;;
12597;SDS011;6364;53.590;9.956;2022-12-31T17:21:12;47.05;;;26.30;;
12597;SDS011;6364;53.590;9.956;2022-12-31T17:23:37;39.15;;;23.88;;
12597;SDS011;6364;53.590;9.956;2022-12-31T17:28:43;54.72;;;34.97;;
12597;SDS011;6364;53.590;9.956;2022-12-31T17:36:57;67.78;;;41.80;;
12597;SDS011;6364;53.590;9.956;2022-12-31T17:39:38;75.53;;;41.13;;
12597;SDS011;6364;53.590;9.956;2022-12-31T17:42:08;79.85;;;46.80;;
12597;SDS011;6364;53.590;9.956;2022-12-31T17:44:35;70.50;;;38.40;;
12597;SDS011;6364;53.590;9.956;2022-12-31T17:47:03;102.32;;;59.47;;
12597;SDS011;6364;53.590;9.956;2022-12-31T17:49:29;77.93;;;42.67;;
12597;SDS011;6364;53.590;9.956;2022-12-31T17:51:55;87.38;;;44.80;;
12597;SDS011;6364;53.590;9.956;2022-12-31T17:54:20;90.05;;;48.80;;
12597;SDS011;6364;53.590;9.956;2022-12-31T17:56:45;95.65;;;51.10;;
12597;SDS011;6364;53.590;9.956;2022-12-31T17:59:15;63.63;;;36.35;;
12597;SDS011;6364;53.590;9.956;2022-12-31T18:01:48;36.08;;;21.38;;
12597;SDS011;6364;53.590;9.956;2022-12-31T18:04:14;35.80;;;20.77;;
12597;SDS011;6364;53.590;9.956;2022-12-31T18:06:41;45.03;;;25.90;;
12597;SDS011;6364;53.590;9.956;2022-12-31T18:09:06;47.67;;;25.55;;
12597;SDS011;6364;53.590;9.956;2022-12-31T18:11:31;51.28;;;31.05;;
12597;SDS011;6364;53.590;9.956;2022-12-31T18:13:57;50.00;;;28.45;;
12597;SDS011;6364;53.590;9.956;2022-12-31T18:16:22;48.30;;;27.30;;
12597;SDS011;6364;53.590;9.956;2022-12-31T18:18:48;42.55;;;23.17;;
12597;SDS011;6364;53.590;9.956;2022-12-31T18:21:32;46.85;;;25.85;;
12597;SDS011;6364;53.590;9.956;2022-12-31T18:23:59;44.38;;;23.42;;
12597;SDS011;6364;53.590;9.956;2022-12-31T18:26:25;54.70;;;34.20;;
12597;SDS011;6364;53.590;9.956;2022-12-31T18:28:51;32.13;;;18.02;;
12597;SDS011;6364;53.590;9.956;2022-12-31T18:33:49;29.55;;;16.90;;
12597;SDS011;6364;53.590;9.956;2022-12-31T18:36:16;58.33;;;31.38;;
12597;SDS011;6364;53.590;9.956;2022-12-31T18:38:43;42.97;;;23.27;;
12597;SDS011;6364;53.590;9.956;2022-12-31T18:41:19;34.00;;;17.00;;
12597;SDS011;6364;53.590;9.956;2022-12-31T18:43:46;63.58;;;35.65;;
12597;SDS011;6364;53.590;9.956;2022-12-31T18:46:12;46.85;;;26.08;;
12597;SDS011;6364;53.590;9.956;2022-12-31T18:48:38;94.63;;;58.65;;
12597;SDS011;6364;53.590;9.956;2022-12-31T18:51:05;96.45;;;52.15;;
12597;SDS011;6364;53.590;9.956;2022-12-31T18:53:31;80.25;;;47.35;;
12597;SDS011;6364;53.590;9.956;2022-12-31T18:55:57;115.55;;;61.20;;
12597;SDS011;6364;53.590;9.956;2022-12-31T18:58:22;68.05;;;39.55;;
12597;SDS011;6364;53.590;9.956;2022-12-31T19:00:48;146.55;;;89.03;;
12597;SDS011;6364;53.590;9.956;2022-12-31T19:03:15;112.13;;;68.97;;
12597;SDS011;6364;53.590;9.956;2022-12-31T19:05:41;128.52;;;71.70;;
12597;SDS011;6364;53.590;9.956;2022-12-31T19:08:07;80.03;;;47.53;;
12597;SDS011;6364;53.590;9.956;2022-12-31T19:10:33;86.53;;;52.05;;
12597;SDS011;6364;53.590;9.956;2022-12-31T19:12:58;249.38;;;161.48;;
12597;SDS011;6364;53.590;9.956;2022-12-31T19:15:25;67.68;;;42.60;;
12597;SDS011;6364;53.590;9.956;2022-12-31T19:17:53;60.10;;;34.58;;
12597;SDS011;6364;53.590;9.956;2022-12-31T19:20:19;224.43;;;134.25;;
12597;SDS011;6364;53.590;9.956;2022-12-31T19:22:45;56.88;;;33.55;;
12597;SDS011;6364;53.590;9.956;2022-12-31T19:25:17;60.40;;;36.75;;
12597;SDS011;6364;53.590;9.956;2022-12-31T19:27:47;54.92;;;35.28;;
12597;SDS011;6364;53.590;9.956;2022-12-31T19:30:17;52.70;;;31.33;;
12597;SDS011;6364;53.590;9.956;2022-12-31T19:32:46;36.22;;;22.27;;
12597;SDS011;6364;53.590;9.956;2022-12-31T19:35:12;42.42;;;28.10;;
12597;SDS011;6364;53.590;9.956;2022-12-31T19:37:38;39.13;;;22.65;;
12597;SDS011;6364;53.590;9.956;2022-12-31T19:40:04;36.50;;;19.48;;
12597;SDS011;6364;53.590;9.956;2022-12-31T19:42:30;31.10;;;18.70;;